Time;durP1;ratioP1;P1;durP2;ratioP2;P2;SDS_P1;SDS_P2;PMS_P1;PMS_P2;Temp;Humidity;BMP_temperature;BMP_pressure;BME280_temperature;BME280_humidity;BME280_pressure;Samples;Min_cycle;Max_cycle;Signal;HPM_P1;HPM_P2
2024/04/07 00:01:20;;;;;;;11.20;7.80;;;;;;;11.35;68.56;100962.74;104353;1286;24105;-65
2024/04/07 00:03:45;;;;;;;9.20;7.90;;;;;;;11.37;69.65;100965.30;104189;1310;26631;-65
2024/04/07 00:06:11;;;;;;;16.60;8.70;;;;;;;11.41;69.21;100962.31;104632;1302;22551;-64
2024/04/07 00:08:36;;;;;;;10.20;8.00;;;;;;;11.43;68.72;100957.95;104479;1307;25330;-65
2024/04/07 00:11:04;;;;;;;11.20;8.30;;;;;;;11.43;68.31;100966.41;104746;1308;22576;-65
2024/04/07 00:13:33;;;;;;;10.90;7.70;;;;;;;11.42;68.58;100969.54;104675;1291;22590;-65
2024/04/07 00:15:59;;;;;;;10.20;7.50;;;;;;;11.39;68.22;100973.05;104476;1305;23277;-65
2024/04/07 00:18:25;;;;;;;12.00;7.70;;;;;;;11.30;67.98;100967.46;104352;1310;22701;-65
2024/04/07 00:21:02;;;;;;;10.30;7.60;;;;;;;11.20;68.10;100964.81;104521;1308;22617;-66
2024/04/07 00:23:28;;;;;;;9.70;7.70;;;;;;;11.12;68.02;100965.27;104818;1291;22531;-64
2024/04/07 00:25:54;;;;;;;11.60;7.60;;;;;;;11.03;68.25;100967.64;104677;1308;22637;-63
2024/04/07 00:28:20;;;;;;;14.60;6.90;;;;;;;10.95;68.19;100966.16;104623;1309;22526;-64
2024/04/07 00:30:46;;;;;;;10.60;7.70;;;;;;;10.89;68.88;100962.48;104542;1308;22539;-63
2024/04/07 00:33:11;;;;;;;8.90;7.30;;;;;;;10.89;69.68;100964.02;104282;1295;25268;-63
2024/04/07 00:35:36;;;;;;;15.20;8.80;;;;;;;10.93;69.57;100954.47;104628;1301;22581;-63
2024/04/07 00:38:02;;;;;;;12.90;7.80;;;;;;;10.96;69.62;100950.29;104464;1310;24262;-62
2024/04/07 00:40:27;;;;;;;10.80;7.60;;;;;;;11.01;69.27;100955.23;103874;1303;22676;-63
2024/04/07 00:42:55;;;;;;;9.90;7.50;;;;;;;11.06;69.48;100957.08;103983;1309;26552;-63
2024/04/07 00:45:21;;;;;;;8.40;7.20;;;;;;;11.07;69.52;100951.20;104025;1304;22597;-62
2024/04/07 00:47:47;;;;;;;9.40;7.00;;;;;;;11.04;69.60;100951.59;103937;1304;22777;-65
2024/04/07 00:50:14;;;;;;;8.80;7.20;;;;;;;11.05;69.95;100951.73;103797;1309;23844;-62
2024/04/07 00:52:40;;;;;;;9.50;7.80;;;;;;;10.99;69.39;100952.33;103689;1288;22557;-63
2024/04/07 00:55:10;;;;;;;13.20;8.60;;;;;;;10.92;69.49;100952.77;103732;1301;25571;-63
2024/04/07 00:57:38;;;;;;;11.90;7.80;;;;;;;10.86;69.46;100950.45;104249;1296;25678;-64
2024/04/07 01:00:04;;;;;;;10.00;8.30;;;;;;;10.82;69.55;100953.59;104239;1304;22556;-63
2024/04/07 01:02:30;;;;;;;11.60;8.40;;;;;;;10.75;69.57;100944.19;104015;1286;22553;-62
2024/04/07 01:04:56;;;;;;;13.10;8.30;;;;;;;10.71;69.83;100937.68;104024;1309;22585;-65
2024/04/07 01:07:21;;;;;;;11.70;8.60;;;;;;;10.69;69.95;100938.56;103915;1309;22554;-63
2024/04/07 01:09:47;;;;;;;17.80;8.80;;;;;;;10.72;70.45;100938.36;104040;1307;25538;-64
2024/04/07 01:12:13;;;;;;;13.20;8.60;;;;;;;10.77;71.00;100941.23;104031;1309;22625;-63
2024/04/07 01:14:39;;;;;;;11.30;8.70;;;;;;;10.83;70.64;100938.23;104050;1300;22555;-63
2024/04/07 01:17:07;;;;;;;12.30;9.30;;;;;;;10.88;71.94;100933.86;104057;1298;24341;-63
2024/04/07 01:19:33;;;;;;;11.60;8.70;;;;;;;10.92;71.03;100932.58;104067;1309;22707;-63
2024/04/07 01:21:59;;;;;;;10.30;9.10;;;;;;;10.93;70.67;100930.30;103970;1309;22529;-62
2024/04/07 01:24:24;;;;;;;9.40;8.30;;;;;;;10.92;70.49;100927.91;104047;1290;22568;-63
2024/04/07 01:26:50;;;;;;;11.60;8.20;;;;;;;10.89;70.20;100930.05;103947;1287;24272;-63
2024/04/07 01:29:15;;;;;;;11.10;8.90;;;;;;;10.88;70.51;100931.96;104036;1309;25359;-63
2024/04/07 01:31:41;;;;;;;11.00;8.90;;;;;;;10.88;70.36;100933.17;104040;1309;22554;-63
2024/04/07 01:34:06;;;;;;;12.30;9.20;;;;;;;10.91;71.21;100935.52;104011;1290;25422;-63
2024/04/07 01:36:32;;;;;;;16.90;8.50;;;;;;;10.95;70.90;100933.56;104097;1309;22616;-63
2024/04/07 01:38:57;;;;;;;11.90;9.30;;;;;;;10.95;70.95;100933.05;104064;1309;22576;-63
2024/04/07 01:41:23;;;;;;;15.60;9.60;;;;;;;10.91;70.81;100936.73;103941;1309;24295;-63
2024/04/07 01:43:48;;;;;;;13.60;9.00;;;;;;;10.86;70.70;100937.68;104028;1309;25394;-63
2024/04/07 01:46:14;;;;;;;14.20;8.50;;;;;;;10.82;70.75;100943.59;104031;1308;24870;-63
2024/04/07 01:48:40;;;;;;;12.00;8.60;;;;;;;10.80;70.77;100945.16;104420;1309;22602;-65
2024/04/07 01:51:07;;;;;;;14.60;9.30;;;;;;;10.78;71.27;100942.43;104727;1309;22527;-64
2024/04/07 01:53:33;;;;;;;11.30;8.80;;;;;;;10.74;71.03;100937.48;104666;1286;22677;-65
2024/04/07 01:55:58;;;;;;;14.90;9.30;;;;;;;10.71;71.21;100937.16;104573;1308;22610;-64
2024/04/07 01:58:24;;;;;;;14.50;9.90;;;;;;;10.68;71.06;100934.43;104839;1308;25320;-65
2024/04/07 02:00:50;;;;;;;18.00;10.40;;;;;;;10.72;73.48;100937.84;104674;1309;22619;-65
2024/04/07 02:03:16;;;;;;;14.30;9.90;;;;;;;10.77;73.15;100939.67;104716;1307;22583;-65
2024/04/07 02:05:41;;;;;;;10.40;9.30;;;;;;;10.82;72.72;100937.90;104597;1291;24238;-65
2024/04/07 02:08:07;;;;;;;15.80;10.70;;;;;;;10.82;72.11;100932.02;104299;1309;22673;-64
2024/04/07 02:10:32;;;;;;;13.90;10.60;;;;;;;10.84;72.53;100928.58;104648;1309;22600;-65
2024/04/07 02:12:58;;;;;;;11.80;9.90;;;;;;;10.87;73.02;100924.89;104378;1307;24210;-64
2024/04/07 02:15:24;;;;;;;13.30;10.20;;;;;;;10.95;74.85;100927.20;104644;1291;22736;-65
2024/04/07 02:17:50;;;;;;;16.00;10.90;;;;;;;11.05;75.97;100924.81;104382;1309;22683;-65
2024/04/07 02:20:16;;;;;;;13.50;10.30;;;;;;;11.20;78.38;100923.93;104545;1309;25665;-64
2024/04/07 02:22:43;;;;;;;14.10;12.10;;;;;;;11.34;76.27;100923.22;104349;1308;22568;-64
2024/04/07 02:25:10;;;;;;;13.10;9.40;;;;;;;11.37;73.80;100915.59;104654;1291;22564;-64
2024/04/07 02:27:36;;;;;;;13.00;9.80;;;;;;;11.36;75.48;100914.75;104530;1305;22558;-65
2024/04/07 02:30:04;;;;;;;18.80;10.90;;;;;;;11.38;77.72;100914.88;104761;1307;23030;-65
2024/04/07 02:32:32;;;;;;;12.30;9.90;;;;;;;11.48;78.82;100912.48;104572;1309;22633;-64
2024/04/07 02:34:57;;;;;;;22.60;12.20;;;;;;;11.60;79.89;100919.88;104694;1289;22580;-65
2024/04/07 02:37:23;;;;;;;14.80;11.10;;;;;;;11.69;79.11;100917.84;104494;1302;22578;-65
2024/04/07 02:39:49;;;;;;;14.00;10.90;;;;;;;11.79;80.55;100914.92;104570;1308;25335;-64
2024/04/07 02:42:15;;;;;;;11.90;10.50;;;;;;;11.92;78.84;100910.75;104520;1304;22645;-65
2024/04/07 02:50:09;;;;;;;16.10;11.40;;;;;;;12.08;79.25;100899.73;104535;1309;22724;-65
2024/04/07 02:52:35;;;;;;;11.20;9.10;;;;;;;12.11;79.37;100899.35;104466;1309;22643;-65
2024/04/07 02:55:00;;;;;;;13.80;9.60;;;;;;;12.09;77.71;100898.17;104252;1286;25443;-65
2024/04/07 02:57:26;;;;;;;14.70;9.00;;;;;;;12.09;77.52;100899.38;104569;1308;24109;-65
2024/04/07 02:59:51;;;;;;;17.50;9.80;;;;;;;12.08;77.24;100900.44;104172;1308;25403;-63
2024/04/07 03:02:16;;;;;;;17.00;9.50;;;;;;;12.10;78.93;100900.75;104096;1309;23300;-63
2024/04/07 03:04:42;;;;;;;17.40;10.80;;;;;;;12.12;78.07;100896.91;104087;1309;22694;-64
2024/04/07 03:07:07;;;;;;;14.80;10.10;;;;;;;12.15;78.00;100896.52;104053;1290;22574;-64
2024/04/07 03:09:33;;;;;;;10.60;9.50;;;;;;;12.17;79.95;100900.97;104027;1304;22627;-62
2024/04/07 03:11:58;;;;;;;15.30;9.80;;;;;;;12.19;80.57;100899.89;104079;1309;22678;-63
2024/04/07 03:14:24;;;;;;;13.20;9.90;;;;;;;12.23;79.10;100898.95;104101;1309;22584;-63
2024/04/07 03:16:49;;;;;;;12.90;9.40;;;;;;;12.25;79.09;100895.98;103935;1290;25652;-63
2024/04/07 03:19:14;;;;;;;15.30;10.30;;;;;;;12.28;79.61;100895.76;103985;1310;22998;-63
2024/04/07 03:21:40;;;;;;;13.70;10.10;;;;;;;12.31;79.82;100890.69;104065;1303;23092;-63
2024/04/07 03:24:05;;;;;;;11.60;9.70;;;;;;;12.35;80.59;100891.66;104017;1310;23189;-63
2024/04/07 03:26:30;;;;;;;12.80;9.80;;;;;;;12.33;80.04;100890.30;103964;1302;22634;-62
2024/04/07 03:28:56;;;;;;;12.20;9.60;;;;;;;12.34;79.99;100885.63;104111;1308;25615;-62
2024/04/07 03:31:21;;;;;;;16.40;9.60;;;;;;;12.35;79.35;100884.91;104061;1308;23040;-63
2024/04/07 03:33:49;;;;;;;10.10;9.00;;;;;;;12.34;80.04;100882.00;104085;1307;23335;-62
2024/04/07 03:36:15;;;;;;;12.10;9.40;;;;;;;12.35;80.80;100883.54;103986;1287;25546;-63
2024/04/07 03:38:40;;;;;;;12.90;9.40;;;;;;;12.36;79.76;100882.48;104004;1309;26537;-63
2024/04/07 03:41:06;;;;;;;15.00;10.00;;;;;;;12.37;80.65;100878.12;103965;1310;22560;-63
2024/04/07 03:43:32;;;;;;;19.70;9.90;;;;;;;12.38;80.42;100881.23;104003;1309;25216;-63
2024/04/07 03:46:02;;;;;;;12.50;9.70;;;;;;;12.39;80.53;100881.90;103965;1286;23976;-63
2024/04/07 03:48:29;;;;;;;15.90;9.50;;;;;;;12.38;79.82;100880.53;104399;1309;22568;-63
2024/04/07 03:50:56;;;;;;;14.40;10.10;;;;;;;12.39;79.70;100879.83;104091;1309;23151;-63
2024/04/07 03:53:22;;;;;;;11.00;8.60;;;;;;;12.39;80.41;100879.64;104175;1301;22839;-63
2024/04/07 03:55:47;;;;;;;15.10;9.70;;;;;;;12.43;79.10;100872.83;104047;1308;22688;-62
2024/04/07 03:58:14;;;;;;;11.40;9.00;;;;;;;12.44;80.71;100872.80;103988;1308;22555;-63
2024/04/07 04:00:39;;;;;;;12.20;9.70;;;;;;;12.43;80.71;100873.34;103972;1302;22734;-63
2024/04/07 04:03:06;;;;;;;11.00;9.40;;;;;;;12.41;79.89;100867.68;103951;1309;22551;-62
2024/04/07 04:05:32;;;;;;;16.60;10.60;;;;;;;12.39;80.63;100869.10;103936;1309;22841;-63
2024/04/07 04:07:57;;;;;;;11.50;8.70;;;;;;;12.37;79.81;100867.77;104114;1292;22551;-65
2024/04/07 04:10:23;;;;;;;13.60;9.10;;;;;;;12.37;80.11;100867.92;104050;1310;22920;-65
2024/04/07 04:12:48;;;;;;;13.40;9.50;;;;;;;12.42;81.19;100870.77;104335;1310;22608;-66
2024/04/07 04:15:13;;;;;;;10.00;8.60;;;;;;;12.46;80.83;100863.27;104313;1302;24700;-65
2024/04/07 04:17:39;;;;;;;12.00;8.90;;;;;;;12.49;81.61;100862.48;104274;1291;22555;-64
2024/04/07 04:20:08;;;;;;;10.70;8.90;;;;;;;12.53;82.04;100858.08;104323;1305;22561;-65
2024/04/07 04:22:33;;;;;;;12.30;9.40;;;;;;;12.55;82.53;100854.06;104681;1309;25446;-66
2024/04/07 04:24:59;;;;;;;9.60;8.40;;;;;;;12.54;81.81;100859.08;104294;1302;25337;-64
2024/04/07 04:27:25;;;;;;;10.90;9.20;;;;;;;12.57;81.40;100863.54;104317;1309;22590;-65
2024/04/07 04:29:54;;;;;;;10.20;9.10;;;;;;;12.60;81.65;100861.05;104372;1308;22558;-65
2024/04/07 04:32:20;;;;;;;13.30;8.50;;;;;;;12.61;81.50;100865.70;104263;1303;22624;-65
2024/04/07 04:34:46;;;;;;;22.10;10.20;;;;;;;12.64;82.64;100871.36;104132;1304;22561;-66
2024/04/07 04:37:12;;;;;;;9.30;8.10;;;;;;;12.65;82.28;100874.09;104381;1292;22622;-65
2024/04/07 04:39:38;;;;;;;10.40;8.90;;;;;;;12.68;81.83;100871.27;104425;1302;22564;-65
2024/04/07 04:42:04;;;;;;;11.30;8.60;;;;;;;12.73;81.16;100871.69;104092;1309;22567;-65
2024/04/07 04:44:29;;;;;;;13.20;8.60;;;;;;;12.77;81.51;100867.79;104530;1309;22504;-65
2024/04/07 04:46:55;;;;;;;12.90;8.80;;;;;;;12.80;82.58;100872.58;104527;1286;22671;-64
2024/04/07 04:49:20;;;;;;;10.10;8.40;;;;;;;12.84;82.28;100873.35;104567;1304;22598;-65
2024/04/07 04:51:48;;;;;;;11.20;8.70;;;;;;;12.92;81.50;100873.19;104546;1309;22568;-65
2024/04/07 04:54:14;;;;;;;12.10;8.80;;;;;;;13.01;82.13;100872.11;104486;1302;22597;-65
2024/04/07 04:56:40;;;;;;;17.70;9.40;;;;;;;13.07;82.37;100876.44;104580;1304;22564;-65
2024/04/07 04:59:08;;;;;;;9.80;8.20;;;;;;;13.16;81.23;100877.51;104542;1307;22616;-65
2024/04/07 05:01:33;;;;;;;11.90;8.80;;;;;;;13.22;81.60;100883.77;104456;1295;22566;-65
2024/04/07 05:03:59;;;;;;;10.50;8.00;;;;;;;13.29;82.12;100884.14;104360;1309;24254;-65
2024/04/07 05:06:25;;;;;;;9.10;7.60;;;;;;;13.36;81.88;100879.13;104583;1307;22527;-65
2024/04/07 05:08:51;;;;;;;11.60;7.70;;;;;;;13.42;81.34;100879.86;104560;1291;22554;-65
2024/04/07 05:11:17;;;;;;;9.70;7.40;;;;;;;13.47;80.59;100876.29;104665;1307;22670;-65
2024/04/07 05:13:44;;;;;;;9.90;8.50;;;;;;;13.52;80.96;100873.88;104524;1310;25992;-65
2024/04/07 05:16:09;;;;;;;12.20;8.20;;;;;;;13.58;80.48;100875.64;104197;1309;22553;-66
2024/04/07 05:18:35;;;;;;;11.60;7.70;;;;;;;13.64;80.21;100873.94;104180;1290;25324;-62
2024/04/07 05:21:04;;;;;;;9.30;7.60;;;;;;;13.68;81.06;100868.63;103955;1307;22993;-64
2024/04/07 05:23:30;;;;;;;10.00;7.80;;;;;;;13.72;80.54;100870.80;104124;1310;22819;-62
2024/04/07 05:26:06;;;;;;;9.80;7.20;;;;;;;13.77;80.51;100871.20;104051;1307;22687;-63
2024/04/07 05:28:32;;;;;;;10.70;8.20;;;;;;;13.82;81.06;100873.65;104067;1288;22678;-63
2024/04/07 05:31:03;;;;;;;9.50;8.00;;;;;;;13.85;81.17;100869.05;104089;1302;22561;-62
2024/04/07 05:33:30;;;;;;;9.00;7.60;;;;;;;13.87;80.68;100868.15;104362;1309;22558;-65
2024/04/07 05:36:00;;;;;;;8.60;7.40;;;;;;;13.88;80.31;100872.11;104091;1309;22608;-62
2024/04/07 05:38:26;;;;;;;9.60;7.90;;;;;;;13.89;80.54;100872.60;104030;1295;24405;-63
2024/04/07 05:40:58;;;;;;;10.80;8.00;;;;;;;13.93;80.70;100876.49;103948;1310;25400;-62
2024/04/07 05:43:23;;;;;;;11.40;8.10;;;;;;;13.95;80.54;100877.33;104447;1307;22642;-65
2024/04/07 05:45:50;;;;;;;9.70;7.60;;;;;;;13.96;81.13;100882.15;103984;1308;22571;-63
2024/04/07 05:48:20;;;;;;;11.30;8.10;;;;;;;13.96;80.53;100881.98;104028;1286;22550;-62
2024/04/07 05:50:46;;;;;;;11.80;6.90;;;;;;;13.97;80.54;100881.61;104069;1295;25361;-62
2024/04/07 05:53:12;;;;;;;8.30;7.10;;;;;;;13.98;80.57;100882.45;103942;1302;22547;-62
2024/04/07 05:55:38;;;;;;;7.90;7.00;;;;;;;13.98;80.04;100882.08;104067;1302;22587;-63
2024/04/07 05:58:03;;;;;;;13.20;7.40;;;;;;;14.02;80.24;100880.93;104039;1304;22547;-62
2024/04/07 06:00:34;;;;;;;10.50;7.40;;;;;;;14.07;80.42;100881.31;104077;1290;22563;-62
2024/04/07 06:03:01;;;;;;;14.90;8.90;;;;;;;14.13;80.39;100883.05;104070;1302;25383;-64
2024/04/07 06:05:26;;;;;;;9.10;7.40;;;;;;;14.22;80.41;100880.39;104064;1301;22567;-63
2024/04/07 06:07:52;;;;;;;9.30;6.80;;;;;;;14.31;80.69;100881.21;104065;1307;22601;-63
2024/04/07 06:10:18;;;;;;;10.30;7.70;;;;;;;14.39;80.33;100879.24;104081;1302;24248;-62
2024/04/07 06:12:43;;;;;;;10.60;7.10;;;;;;;14.51;79.85;100875.80;104031;1304;25415;-63
2024/04/07 06:15:18;;;;;;;9.30;7.00;;;;;;;14.63;79.81;100873.71;104061;1306;22577;-62
2024/04/07 06:17:46;;;;;;;9.80;6.80;;;;;;;14.75;79.57;100866.23;104027;1304;25399;-63
2024/04/07 06:20:11;;;;;;;8.70;7.80;;;;;;;14.87;79.30;100861.20;104075;1295;22547;-62
2024/04/07 06:22:37;;;;;;;10.50;6.70;;;;;;;15.03;79.20;100863.17;104271;1301;24328;-62
2024/04/07 06:25:04;;;;;;;10.10;6.30;;;;;;;15.17;79.36;100867.89;104200;1301;26918;-63
2024/04/07 06:27:33;;;;;;;13.60;7.00;;;;;;;15.36;79.03;100870.64;104164;1302;22734;-62
2024/04/07 06:29:58;;;;;;;7.70;6.60;;;;;;;15.56;78.77;100871.21;104367;1291;26770;-64
2024/04/07 06:32:25;;;;;;;8.20;7.00;;;;;;;15.74;78.22;100863.84;103956;1288;23300;-62
2024/04/07 06:34:51;;;;;;;8.00;6.00;;;;;;;15.90;78.27;100866.25;104066;1296;288094;-65
2024/04/07 06:37:16;;;;;;;7.40;6.70;;;;;;;16.07;77.84;100866.88;103728;1294;22553;-61
2024/04/07 06:39:51;;;;;;;7.50;5.90;;;;;;;16.20;77.16;100868.11;103845;1301;25512;-62
2024/04/07 06:42:31;;;;;;;14.00;6.20;;;;;;;16.36;77.59;100873.66;104337;1307;24363;-63
2024/04/07 06:44:59;;;;;;;9.10;6.20;;;;;;;16.54;77.35;100872.30;104312;1304;22908;-63
2024/04/07 06:47:25;;;;;;;7.00;5.80;;;;;;;16.69;77.08;100868.11;104272;1294;22665;-62
2024/04/07 06:49:52;;;;;;;8.50;5.50;;;;;;;16.83;76.45;100862.02;103876;1288;22764;-62
2024/04/07 06:52:18;;;;;;;;;;;;;;;16.99;76.55;100862.27;104285;1294;22529;-60
2024/04/07 06:54:44;;;;;;;6.50;5.10;;;;;;;17.13;76.00;100861.52;104140;1294;22515;-60
2024/04/07 06:57:10;;;;;;;9.00;5.20;;;;;;;17.28;75.57;100865.45;103622;1294;23064;-63
2024/04/07 06:59:36;;;;;;;9.30;5.10;;;;;;;17.44;76.04;100868.30;104104;1286;22635;-63
2024/04/07 07:02:02;;;;;;;6.80;4.90;;;;;;;17.64;75.78;100867.16;103681;1302;25317;-63
2024/04/07 07:05:19;;;;;;;11.40;6.50;;;;;;;17.83;75.11;100865.30;103741;1301;22718;-64
2024/04/07 07:08:10;;;;;;;5.50;5.00;;;;;;;18.17;75.18;100867.66;103277;1313;22730;-62
2024/04/07 07:10:41;;;;;;;5.70;5.00;;;;;;;18.39;74.52;100875.25;102141;1309;24264;-62
2024/04/07 07:13:14;;;;;;;7.10;4.90;;;;;;;18.63;75.84;100880.46;102735;1318;24192;-62
2024/04/07 07:15:39;;;;;;;8.20;4.90;;;;;;;18.96;75.55;100881.04;102453;1309;22567;-61
2024/04/07 07:18:05;;;;;;;6.80;4.40;;;;;;;19.29;75.69;100885.08;102431;1309;22594;-61
2024/04/07 07:20:30;;;;;;;7.30;4.80;;;;;;;19.63;75.31;100884.63;103074;1306;22717;-62
2024/04/07 07:22:56;;;;;;;7.30;4.20;;;;;;;20.00;75.80;100887.84;102562;1309;24276;-62
2024/04/07 07:25:21;;;;;;;5.80;3.50;;;;;;;20.47;75.30;100890.31;102531;1322;25448;-62
2024/04/07 07:27:47;;;;;;;4.00;3.60;;;;;;;20.69;71.50;100891.80;102764;1324;24117;-61
2024/04/07 07:30:13;;;;;;;5.20;3.80;;;;;;;20.77;71.45;100888.72;102454;1304;22579;-62
2024/04/07 07:32:39;;;;;;;4.20;3.70;;;;;;;20.86;70.49;100882.79;102372;1309;22635;-61
2024/04/07 07:35:05;;;;;;;6.50;3.40;;;;;;;20.89;70.41;100887.68;102576;1315;22580;-62
2024/04/07 07:37:30;;;;;;;5.60;3.80;;;;;;;20.85;69.70;100884.21;103090;1322;22587;-60
2024/04/07 07:39:55;;;;;;;5.90;3.80;;;;;;;20.91;69.34;100886.67;103224;1318;22601;-58
2024/04/07 07:42:21;;;;;;;4.90;3.70;;;;;;;21.11;70.00;100885.42;103485;1302;22580;-59
2024/04/07 07:44:46;;;;;;;5.70;4.10;;;;;;;21.57;71.69;100890.51;104014;1318;22769;-59
2024/04/07 07:47:12;;;;;;;5.70;3.50;;;;;;;22.04;71.44;100896.57;103805;1306;27541;-61
2024/04/07 07:49:37;;;;;;;3.40;3.00;;;;;;;22.28;67.86;100895.66;103965;1304;22616;-64
2024/04/07 07:52:03;;;;;;;4.20;3.30;;;;;;;22.61;68.38;100895.70;103397;1294;22831;-63
2024/04/07 07:54:28;;;;;;;3.40;3.00;;;;;;;22.91;65.97;100890.69;103957;1304;26990;-63
2024/04/07 07:56:54;;;;;;;3.10;2.70;;;;;;;23.23;67.15;100895.36;103836;1295;22638;-66
2024/04/07 07:59:19;;;;;;;4.10;3.30;;;;;;;23.75;64.13;100894.19;103577;1304;24520;-63
2024/04/07 08:01:45;;;;;;;3.80;3.00;;;;;;;24.05;62.59;100895.15;103740;1292;22560;-64
2024/04/07 08:04:10;;;;;;;3.50;2.60;;;;;;;24.16;62.22;100891.98;103779;1304;23563;-62
2024/04/07 08:06:37;;;;;;;3.20;2.70;;;;;;;24.04;61.30;100886.60;103808;1304;22558;-63
2024/04/07 08:09:03;;;;;;;4.70;2.90;;;;;;;23.94;58.32;100879.38;103805;1307;22564;-65
2024/04/07 08:11:28;;;;;;;5.80;2.90;;;;;;;23.99;60.80;100876.88;103708;1292;22590;-65
2024/04/07 08:13:54;;;;;;;3.70;2.80;;;;;;;24.14;58.82;100876.41;103591;1304;22723;-65
2024/04/07 08:16:20;;;;;;;4.10;2.60;;;;;;;24.19;60.12;100878.39;107592;1304;22284;-65
2024/04/07 08:18:45;;;;;;;4.80;3.10;;;;;;;24.20;57.49;100880.39;106074;1304;27856;-65
2024/04/07 08:21:10;;;;;;;5.80;2.90;;;;;;;24.37;58.76;100874.98;103535;1288;23957;-66
2024/04/07 08:23:36;;;;;;;5.00;2.90;;;;;;;24.71;58.25;100880.68;103721;1310;22665;-65
2024/04/07 08:26:01;;;;;;;4.00;2.50;;;;;;;25.07;59.36;100881.45;103745;1309;24238;-65
2024/04/07 08:28:29;;;;;;;3.30;2.80;;;;;;;25.25;56.91;100881.23;103809;1310;22625;-67
2024/04/07 08:30:56;;;;;;;3.40;3.00;;;;;;;25.34;56.65;100882.71;103790;1310;22641;-65
2024/04/07 08:33:22;;;;;;;4.50;3.00;;;;;;;25.58;56.78;100880.30;103669;1291;22775;-65
2024/04/07 08:35:47;;;;;;;4.50;2.90;;;;;;;25.87;57.15;100879.25;103851;1304;22603;-66
2024/04/07 08:38:13;;;;;;;5.10;3.10;;;;;;;26.23;54.73;100872.41;103858;1305;22573;-64
2024/04/07 08:40:41;;;;;;;4.10;2.90;;;;;;;26.48;55.51;100872.77;104244;1309;22943;-64
2024/04/07 08:43:08;;;;;;;4.30;3.10;;;;;;;27.05;56.99;100871.00;103975;1291;22709;-65
2024/04/07 08:45:34;;;;;;;3.60;2.90;;;;;;;27.83;57.72;100871.95;103882;1300;22680;-64
2024/04/07 08:48:02;;;;;;;4.20;1.90;;;;;;;28.54;54.69;100874.91;103875;1310;22571;-65
2024/04/07 08:50:28;;;;;;;3.10;2.80;;;;;;;28.68;56.02;100877.89;104530;1307;24289;-65
2024/04/07 08:52:55;;;;;;;2.90;2.50;;;;;;;28.85;49.89;100872.17;103900;1291;24406;-65
2024/04/07 08:55:23;;;;;;;6.60;2.50;;;;;;;28.84;53.22;100867.65;103951;1303;23754;-64
2024/04/07 08:57:49;;;;;;;5.60;2.40;;;;;;;29.22;52.94;100873.26;103951;1308;22664;-65
2024/04/07 09:00:16;;;;;;;4.60;2.40;;;;;;;29.57;51.67;100867.09;105473;1292;22828;-63
2024/04/07 09:02:41;;;;;;;;;;;;;;;29.68;50.62;100868.15;105469;1302;22877;-60
2024/04/07 09:05:07;;;;;;;3.40;2.20;;;;;;;29.81;48.96;100870.11;105403;1295;24235;-61
2024/04/07 09:07:33;;;;;;;2.60;2.30;;;;;;;29.82;46.91;100872.18;105316;1304;22548;-61
2024/04/07 09:09:59;;;;;;;2.20;2.00;;;;;;;29.41;45.25;100872.06;105377;1303;22553;-63
2024/04/07 09:12:25;;;;;;;2.90;1.80;;;;;;;29.38;47.02;100873.77;105392;1286;22574;-61
2024/04/07 09:14:50;;;;;;;3.00;2.40;;;;;;;28.93;44.11;100869.46;105320;1308;25411;-60
2024/04/07 09:17:16;;;;;;;2.50;2.30;;;;;;;28.48;45.58;100865.17;105324;1303;22571;-62
2024/04/07 09:19:41;;;;;;;5.20;2.30;;;;;;;28.49;45.79;100865.38;105092;1310;25448;-62
2024/04/07 09:22:08;;;;;;;4.30;2.00;;;;;;;29.07;46.22;100859.69;105176;1291;24213;-63
2024/04/07 09:24:35;;;;;;;7.60;2.40;;;;;;;29.41;45.10;100858.96;105372;1288;22580;-61
2024/04/07 09:27:06;;;;;;;3.10;1.90;;;;;;;29.47;46.24;100857.98;105746;1294;24228;-61
2024/04/07 09:29:34;;;;;;;3.50;2.20;;;;;;;29.89;45.32;100859.46;106082;1303;22614;-63
2024/04/07 09:32:00;;;;;;;2.20;2.00;;;;;;;30.14;44.75;100857.27;105686;1307;22520;-61
2024/04/07 09:34:31;;;;;;;4.30;1.90;;;;;;;30.33;41.71;100853.98;105353;1290;22775;-61
2024/04/07 09:36:58;;;;;;;4.00;2.10;;;;;;;30.24;42.84;100851.35;105575;1308;22605;-62
2024/04/07 09:39:25;;;;;;;2.80;2.20;;;;;;;29.96;40.32;100842.98;105696;1303;23620;-62
2024/04/07 09:41:54;;;;;;;2.40;2.00;;;;;;;29.63;41.08;100836.45;105537;1297;22567;-61
2024/04/07 09:44:21;;;;;;;5.40;1.70;;;;;;;29.22;41.23;100827.96;105488;1292;22604;-62
2024/04/07 09:46:47;;;;;;;2.40;1.70;;;;;;;29.53;41.67;100829.80;105475;1309;22979;-62
2024/04/07 09:49:14;;;;;;;2.60;2.30;;;;;;;30.09;40.95;100831.94;105793;1302;24187;-61
2024/04/07 09:51:50;;;;;;;2.90;1.60;;;;;;;30.41;40.12;100841.85;105689;1309;22787;-64
2024/04/07 09:54:31;;;;;;;2.10;1.90;;;;;;;30.37;38.19;100841.75;105617;1290;22508;-63
2024/04/07 09:56:56;;;;;;;3.00;2.10;;;;;;;30.49;38.39;100840.80;105692;1302;23841;-64
2024/04/07 09:59:23;;;;;;;3.30;1.80;;;;;;;30.81;38.51;100828.39;105553;1309;22740;-62
2024/04/07 10:01:49;;;;;;;3.50;1.80;;;;;;;31.19;38.01;100822.85;105501;1307;25324;-62
2024/04/07 10:04:16;;;;;;;2.60;2.00;;;;;;;31.44;37.03;100816.39;105850;1291;22610;-61
2024/04/07 10:06:42;;;;;;;3.10;1.70;;;;;;;31.66;35.71;100819.69;105898;1294;25528;-61
2024/04/07 10:09:10;;;;;;;3.60;1.70;;;;;;;31.41;35.08;100824.84;105262;1309;25469;-64
2024/04/07 10:11:46;;;;;;;3.50;1.90;;;;;;;31.15;35.73;100843.51;103952;1309;25375;-64
2024/04/07 10:14:16;;;;;;;3.80;1.50;;;;;;;31.34;34.50;100863.73;103980;1304;24206;-65
2024/04/07 10:16:47;;;;;;;3.10;2.00;;;;;;;31.58;35.16;100860.61;103804;1304;22560;-65
2024/04/07 10:19:15;;;;;;;2.40;1.80;;;;;;;31.87;35.12;100856.00;105015;1303;22966;-64
2024/04/07 10:21:43;;;;;;;3.40;1.60;;;;;;;32.13;33.65;100852.12;107022;1303;22877;-64
2024/04/07 10:24:08;;;;;;;7.80;2.70;;;;;;;32.50;34.17;100847.17;106488;1292;22888;-62
2024/04/07 10:26:33;;;;;;;2.30;1.70;;;;;;;32.79;34.04;100853.94;106481;1304;26295;-62
2024/04/07 10:28:59;;;;;;;2.50;1.80;;;;;;;32.59;32.30;100859.98;106330;1302;22544;-61
2024/04/07 10:31:29;;;;;;;2.80;2.20;;;;;;;32.00;32.83;100857.69;106052;1294;22512;-61
2024/04/07 10:33:55;;;;;;;2.30;1.80;;;;;;;32.40;34.62;100853.54;105842;1291;24642;-61
2024/04/07 10:36:23;;;;;;;3.10;2.30;;;;;;;32.84;34.29;100846.76;105898;1294;22619;-61
2024/04/07 10:38:55;;;;;;;3.40;2.50;;;;;;;32.84;33.87;100849.61;105851;1302;22512;-62
2024/04/07 10:41:35;;;;;;;2.30;1.80;;;;;;;32.22;32.38;100851.12;105953;1294;22875;-60
2024/04/07 10:44:02;;;;;;;4.40;1.90;;;;;;;31.19;33.32;100849.52;105602;1286;22610;-64
2024/04/07 10:46:30;;;;;;;2.40;1.70;;;;;;;30.48;33.97;100843.73;105876;1301;22553;-61
2024/04/07 10:48:58;;;;;;;3.60;1.90;;;;;;;30.15;34.27;100844.36;105840;1309;22576;-60
2024/04/07 10:51:24;;;;;;;5.60;2.30;;;;;;;29.85;35.06;100853.45;106079;1304;22521;-60
2024/04/07 10:54:04;;;;;;;2.80;1.90;;;;;;;29.88;34.87;100856.17;105877;1286;22630;-62
2024/04/07 10:56:31;;;;;;;2.80;1.60;;;;;;;29.33;35.07;100855.41;106181;1293;22515;-61
2024/04/07 10:59:00;;;;;;;2.10;1.80;;;;;;;29.21;36.41;100853.41;106247;1302;22641;-61
2024/04/07 11:01:25;;;;;;;4.80;1.60;;;;;;;29.48;35.93;100854.00;105969;1303;22620;-61
2024/04/07 11:03:58;;;;;;;3.30;1.60;;;;;;;29.75;35.71;100848.17;105666;1304;22698;-61
2024/04/07 11:06:27;;;;;;;2.00;1.30;;;;;;;30.25;35.28;100842.86;105483;1291;22566;-62
2024/04/07 11:08:54;;;;;;;2.10;1.50;;;;;;;31.01;34.63;100845.80;106135;1295;22599;-62
2024/04/07 11:11:21;;;;;;;2.70;1.80;;;;;;;31.71;33.85;100846.05;106024;1304;22756;-62
2024/04/07 11:13:48;;;;;;;2.70;1.90;;;;;;;31.95;33.88;100845.95;106241;1310;22605;-62
2024/04/07 11:16:14;;;;;;;1.50;1.40;;;;;;;32.70;32.90;100848.92;106391;1290;25543;-60
2024/04/07 11:18:41;;;;;;;1.80;1.70;;;;;;;32.68;31.15;100852.26;106269;1307;22760;-63